Rowe, Illinois
Current Conditions -  °F | °C
As of 7:15 AM on Tuesday 21 Oct 2014 (Local Time) from KPNT Reporting Station
Scattered Clouds Scattered Clouds  
Wind Chill: 42°   Ceiling: Unl
Heat Index: 45°   Visibility: 10mi
Dew Point: 43°   Wind: 5mph
Humidity: 93%   Direction: 320°NW
Pressure: 30.1"   Gusts: NA
Location:  40.8602°N, 88.6284°W
Report Text: KPNT 211215Z AUTO 32004KT 10SM SCT046 07/06 A3010 RMK AO2
Loading
Personal Weather Stations






























Interactive Weather Map
Tropical Storm Tracking
New forecast layout! Learn more

10-Day Weather Forecast

Advertisements
Track Severe Weather on mobile